Time;durP1;ratioP1;P1;durP2;ratioP2;P2;SDS_P1;SDS_P2;PMS_P1;PMS_P2;Temp;Humidity;BMP_temperature;BMP_pressure;BME280_temperature;BME280_humidity;BME280_pressure;Samples;Min_cycle;Max_cycle;Signal;HPM_P1;HPM_P2
2023/11/20 00:01:58;;;;;;;6.95;5.18;;;9.60;99.90;;;;;;5041237;28;20083;-60
2023/11/20 00:04:24;;;;;;;9.50;4.40;;;9.60;99.90;;;;;;5027077;28;20035;-60
2023/11/20 00:06:50;;;;;;;8.23;4.60;;;9.60;99.90;;;;;;5042813;28;20103;-60
2023/11/20 00:09:15;;;;;;;7.53;3.65;;;9.60;99.90;;;;;;5048283;28;20028;-60
2023/11/20 00:11:41;;;;;;;7.03;4.45;;;9.60;99.90;;;;;;5047131;28;20118;-60
2023/11/20 00:14:07;;;;;;;4.72;3.95;;;9.60;99.90;;;;;;5045661;28;20078;-61
2023/11/20 00:16:33;;;;;;;6.60;4.18;;;9.60;99.90;;;;;;5047466;28;20134;-60
2023/11/20 00:18:58;;;;;;;5.53;4.15;;;9.60;99.90;;;;;;5043240;28;20550;-60
2023/11/20 00:21:24;;;;;;;7.00;4.78;;;9.60;99.90;;;;;;5028252;28;20040;-60
2023/11/20 00:23:50;;;;;;;5.35;3.83;;;9.70;99.90;;;;;;5041928;28;20030;-60
2023/11/20 00:26:16;;;;;;;5.95;4.47;;;9.60;99.90;;;;;;5047571;28;20025;-60
2023/11/20 00:28:42;;;;;;;7.30;3.90;;;9.70;99.90;;;;;;5047527;28;20025;-60
2023/11/20 00:31:14;;;;;;;7.93;5.40;;;9.70;99.90;;;;;;5042024;28;20029;-61
2023/11/20 00:33:40;;;;;;;9.38;5.07;;;9.70;99.90;;;;;;5027074;28;20044;-61
2023/11/20 00:36:06;;;;;;;9.02;4.75;;;9.60;99.90;;;;;;5043815;28;20033;-61
2023/11/20 00:38:32;;;;;;;8.65;4.93;;;9.70;99.90;;;;;;5045409;28;20396;-59
2023/11/20 00:40:57;;;;;;;9.48;5.70;;;9.70;99.90;;;;;;5044667;28;20025;-59
2023/11/20 00:43:23;;;;;;;10.63;5.22;;;9.70;99.90;;;;;;5046196;28;20112;-59
2023/11/20 00:45:49;;;;;;;8.23;5.57;;;9.70;99.90;;;;;;5042575;28;20061;-59
2023/11/20 00:48:14;;;;;;;10.30;5.63;;;9.70;99.90;;;;;;5046586;28;20606;-61
2023/11/20 00:50:40;;;;;;;9.30;6.15;;;9.70;99.90;;;;;;5041734;28;20047;-59
2023/11/20 00:53:05;;;;;;;6.93;4.72;;;9.70;99.90;;;;;;5028760;28;20021;-59
2023/11/20 00:55:31;;;;;;;7.38;5.50;;;9.70;99.90;;;;;;5043787;28;20037;-60
2023/11/20 00:57:56;;;;;;;10.18;5.55;;;9.70;99.90;;;;;;5043801;28;20211;-60
2023/11/20 01:00:22;;;;;;;5.88;4.43;;;9.70;99.90;;;;;;5045949;28;20080;-60
2023/11/20 01:02:48;;;;;;;8.18;4.90;;;9.60;99.90;;;;;;5026060;28;20120;-60
2023/11/20 01:05:13;;;;;;;10.07;5.78;;;9.60;99.90;;;;;;5045726;28;20416;-59
2023/11/20 01:07:39;;;;;;;6.38;4.93;;;9.70;99.90;;;;;;5021994;28;20685;-60
2023/11/20 01:10:06;;;;;;;7.72;5.00;;;9.70;99.90;;;;;;5030765;28;20063;-60
2023/11/20 01:12:31;;;;;;;7.85;4.80;;;9.60;99.90;;;;;;5042057;28;20048;-56
2023/11/20 01:14:57;;;;;;;7.43;4.03;;;9.60;99.90;;;;;;5025512;28;20705;-58
2023/11/20 01:17:23;;;;;;;6.32;4.85;;;9.60;99.90;;;;;;5045740;28;20029;-59
2023/11/20 01:19:48;;;;;;;10.48;5.20;;;9.60;99.90;;;;;;5040058;28;20022;-59
2023/11/20 01:22:14;;;;;;;6.60;4.43;;;9.60;99.90;;;;;;5046597;28;20558;-59
2023/11/20 01:24:39;;;;;;;9.50;4.68;;;9.60;99.90;;;;;;5024318;28;20041;-60
2023/11/20 01:27:06;;;;;;;7.85;4.22;;;9.60;99.90;;;;;;5025676;28;20048;-57
2023/11/20 01:29:32;;;;;;;8.27;5.00;;;9.60;99.90;;;;;;5024939;28;20373;-59
2023/11/20 01:31:58;;;;;;;7.50;5.03;;;9.70;99.90;;;;;;5044134;28;20412;-59
2023/11/20 01:34:24;;;;;;;4.88;3.85;;;9.60;99.90;;;;;;5045546;28;20021;-60
2023/11/20 01:36:49;;;;;;;6.70;4.20;;;9.70;99.90;;;;;;5039318;28;20026;-58
2023/11/20 01:39:15;;;;;;;6.90;4.82;;;9.70;99.90;;;;;;5028225;28;20051;-60
2023/11/20 01:41:41;;;;;;;7.00;4.20;;;9.60;99.90;;;;;;5022445;28;20068;-60
2023/11/20 01:44:07;;;;;;;5.78;4.40;;;9.70;99.90;;;;;;5033665;28;20032;-59
2023/11/20 01:46:34;;;;;;;6.45;4.45;;;9.70;99.90;;;;;;5043905;28;20033;-58
2023/11/20 01:49:01;;;;;;;7.57;3.92;;;9.60;99.90;;;;;;5043114;28;20037;-55
2023/11/20 01:51:31;;;;;;;7.40;4.18;;;9.60;99.90;;;;;;5043463;28;20469;-59
2023/11/20 01:53:58;;;;;;;7.72;4.03;;;9.70;99.90;;;;;;5024895;28;20037;-59
2023/11/20 01:56:26;;;;;;;7.30;3.92;;;9.70;99.90;;;;;;5046146;28;20025;-57
2023/11/20 01:58:54;;;;;;;7.28;4.03;;;9.70;99.90;;;;;;5046061;28;20025;-59
2023/11/20 02:01:20;;;;;;;6.88;4.32;;;9.60;99.90;;;;;;5043855;28;20111;-58
2023/11/20 02:03:46;;;;;;;7.28;4.25;;;9.60;99.90;;;;;;5046875;28;20465;-58
2023/11/20 02:06:14;;;;;;;6.95;3.78;;;9.60;99.90;;;;;;5045974;28;20043;-57
2023/11/20 02:08:40;;;;;;;6.22;3.70;;;9.60;99.90;;;;;;5044107;28;20118;-60
2023/11/20 02:11:06;;;;;;;5.93;3.92;;;9.60;99.90;;;;;;5043625;28;20508;-58
2023/11/20 02:13:31;;;;;;;5.18;3.72;;;9.60;99.90;;;;;;5023671;28;20029;-57
2023/11/20 02:15:57;;;;;;;6.00;3.95;;;9.60;99.90;;;;;;5045342;28;20028;-60
2023/11/20 02:18:34;;;;;;;6.88;3.55;;;9.70;99.90;;;;;;5041602;28;20090;-58
2023/11/20 02:21:00;;;;;;;8.35;4.55;;;9.60;99.90;;;;;;5044437;28;20051;-58
2023/11/20 02:23:26;;;;;;;5.55;3.00;;;9.60;99.90;;;;;;5044267;28;20037;-59
2023/11/20 02:26:06;;;;;;;4.72;3.60;;;9.60;99.90;;;;;;5048864;28;20032;-58
2023/11/20 02:29:00;;;;;;;5.15;3.83;;;9.60;99.90;;;;;;5040189;28;20028;-59
2023/11/20 02:31:28;;;;;;;9.32;4.10;;;9.60;99.90;;;;;;5040762;28;20055;-59
2023/11/20 02:33:53;;;;;;;7.35;3.78;;;9.60;99.90;;;;;;5042004;28;20393;-61
2023/11/20 02:36:25;;;;;;;7.03;3.90;;;9.60;99.90;;;;;;5028132;28;20020;-58
2023/11/20 02:38:50;;;;;;;7.07;4.10;;;9.60;99.90;;;;;;5040254;28;20044;-58
2023/11/20 02:41:16;;;;;;;6.80;4.00;;;9.70;99.90;;;;;;5044104;28;20037;-60
2023/11/20 02:43:42;;;;;;;5.85;3.85;;;9.60;99.90;;;;;;5041953;28;20029;-59
2023/11/20 02:46:07;;;;;;;5.07;3.63;;;9.60;99.90;;;;;;5044797;28;20404;-60
2023/11/20 02:48:33;;;;;;;4.45;3.47;;;9.60;99.90;;;;;;5042936;28;20036;-61
2023/11/20 02:50:58;;;;;;;5.80;3.90;;;9.60;99.90;;;;;;5043099;28;20036;-61
2023/11/20 02:53:24;;;;;;;6.57;3.53;;;9.60;99.90;;;;;;5041229;28;20024;-62
2023/11/20 02:55:50;;;;;;;6.57;3.30;;;9.60;99.90;;;;;;5043822;28;20025;-59
2023/11/20 02:58:16;;;;;;;6.90;3.33;;;9.60;99.90;;;;;;5038388;28;20174;-60
2023/11/20 03:00:41;;;;;;;4.85;3.97;;;9.60;99.90;;;;;;5044955;28;20135;-58
2023/11/20 03:03:07;;;;;;;7.13;3.58;;;9.60;99.90;;;;;;5041376;28;20110;-58
2023/11/20 03:05:35;;;;;;;7.10;4.20;;;9.60;99.90;;;;;;5040826;28;20561;-58
2023/11/20 03:08:01;;;;;;;7.57;5.05;;;9.60;99.90;;;;;;5023296;28;20025;-58
2023/11/20 03:10:27;;;;;;;7.28;4.20;;;9.60;99.90;;;;;;5038221;28;20044;-62
2023/11/20 03:12:52;;;;;;;8.00;4.80;;;9.60;99.90;;;;;;5022561;28;20029;-60
2023/11/20 03:15:18;;;;;;;7.88;4.57;;;9.60;99.90;;;;;;5034871;28;20032;-61
2023/11/20 03:17:44;;;;;;;5.10;4.40;;;9.60;99.90;;;;;;5037410;28;20022;-61
2023/11/20 03:20:12;;;;;;;6.32;4.70;;;9.60;99.90;;;;;;5036347;28;20052;-58
2023/11/20 03:22:38;;;;;;;6.22;4.82;;;9.60;99.90;;;;;;5036542;28;20645;-62
2023/11/20 03:25:04;;;;;;;6.68;4.63;;;9.60;99.90;;;;;;5034159;28;20081;-61
2023/11/20 03:27:29;;;;;;;8.60;4.75;;;9.60;99.90;;;;;;5038691;28;20024;-61
2023/11/20 03:29:55;;;;;;;9.70;5.40;;;9.60;99.90;;;;;;5035295;28;20033;-59
2023/11/20 03:32:21;;;;;;;9.70;4.63;;;9.60;99.90;;;;;;5037354;28;20470;-59
2023/11/20 03:34:47;;;;;;;7.43;4.75;;;9.60;99.90;;;;;;5034928;28;20122;-60
2023/11/20 03:37:12;;;;;;;8.75;4.45;;;9.60;99.90;;;;;;5035157;28;20109;-60
2023/11/20 03:39:38;;;;;;;8.50;4.38;;;9.50;99.90;;;;;;5038108;28;20028;-59
2023/11/20 03:42:03;;;;;;;6.60;4.13;;;9.50;99.90;;;;;;5022085;28;20110;-59
2023/11/20 03:44:29;;;;;;;5.03;3.92;;;9.40;99.90;;;;;;5026502;28;20120;-58
2023/11/20 03:46:54;;;;;;;6.40;4.22;;;9.40;99.90;;;;;;5042482;28;20040;-59
2023/11/20 03:49:20;;;;;;;4.75;4.18;;;9.40;99.90;;;;;;5037927;28;20037;-59
2023/11/20 03:51:45;;;;;;;6.18;3.75;;;9.30;99.90;;;;;;5046520;28;20044;-57
2023/11/20 03:54:11;;;;;;;4.25;3.03;;;9.30;99.90;;;;;;5037502;28;20076;-60
2023/11/20 03:56:36;;;;;;;8.63;4.53;;;9.20;99.90;;;;;;5043762;28;20519;-58
2023/11/20 03:59:02;;;;;;;4.82;3.78;;;9.20;99.90;;;;;;5042455;28;20037;-58
2023/11/20 04:01:28;;;;;;;4.65;3.63;;;9.20;99.90;;;;;;5050129;28;20029;-57
2023/11/20 04:03:53;;;;;;;4.70;3.15;;;9.10;99.90;;;;;;5045439;28;20056;-58
2023/11/20 04:06:19;;;;;;;5.80;3.47;;;9.20;99.90;;;;;;5046722;28;20033;-59
2023/11/20 04:08:44;;;;;;;3.75;3.35;;;9.10;99.90;;;;;;5044872;28;20083;-61
2023/11/20 04:11:10;;;;;;;6.22;4.03;;;9.10;99.90;;;;;;5037860;28;20071;-61
2023/11/20 04:13:36;;;;;;;6.22;4.53;;;9.20;99.90;;;;;;5030712;28;20017;-62
2023/11/20 04:16:02;;;;;;;12.18;5.45;;;9.10;99.90;;;;;;5045265;28;20551;-59
2023/11/20 04:18:29;;;;;;;13.10;6.45;;;9.10;99.90;;;;;;5029725;28;20021;-58
2023/11/20 04:20:55;;;;;;;8.43;5.40;;;9.20;99.90;;;;;;5044581;28;20032;-58
2023/11/20 04:23:20;;;;;;;10.65;6.15;;;9.20;99.90;;;;;;5044514;28;20160;-58
2023/11/20 04:25:46;;;;;;;9.07;5.95;;;9.20;99.90;;;;;;5043444;28;20400;-59
2023/11/20 04:28:11;;;;;;;9.57;5.78;;;9.20;99.90;;;;;;5045661;28;20041;-59
2023/11/20 04:30:37;;;;;;;9.88;5.93;;;9.20;99.90;;;;;;5037630;28;20521;-58
2023/11/20 04:33:03;;;;;;;8.93;5.10;;;9.30;99.90;;;;;;5035595;28;20029;-59
2023/11/20 04:35:28;;;;;;;6.47;4.63;;;9.20;99.90;;;;;;5027358;28;20032;-57
2023/11/20 04:37:54;;;;;;;10.75;6.32;;;9.20;99.90;;;;;;5044855;28;20106;-57
2023/11/20 04:40:20;;;;;;;10.77;6.00;;;9.30;99.90;;;;;;5045254;28;20035;-60
2023/11/20 04:42:45;;;;;;;9.02;6.18;;;9.30;99.90;;;;;;5043831;28;20115;-59
2023/11/20 04:45:12;;;;;;;12.02;6.88;;;9.30;99.90;;;;;;5023214;28;20131;-62
2023/11/20 04:47:38;;;;;;;11.27;6.45;;;9.30;99.90;;;;;;5029522;28;20068;-61
2023/11/20 04:50:04;;;;;;;11.93;6.55;;;9.30;99.90;;;;;;5045177;28;20422;-61
2023/11/20 04:52:29;;;;;;;14.80;7.63;;;9.30;99.90;;;;;;5045847;28;20052;-60
2023/11/20 04:54:55;;;;;;;16.52;7.78;;;9.30;99.90;;;;;;5043489;28;20102;-59
2023/11/20 04:57:21;;;;;;;11.73;7.18;;;9.30;99.90;;;;;;5022805;28;20035;-60
2023/11/20 04:59:46;;;;;;;13.73;8.40;;;9.30;99.90;;;;;;5048114;28;20672;-60
2023/11/20 05:02:12;;;;;;;10.75;7.65;;;9.30;99.90;;;;;;5043239;28;20601;-58
2023/11/20 05:04:37;;;;;;;11.93;7.53;;;9.30;99.90;;;;;;5046285;28;20029;-59
2023/11/20 05:07:03;;;;;;;8.10;6.22;;;9.40;99.90;;;;;;5042377;28;20612;-59
2023/11/20 05:09:28;;;;;;;10.18;6.65;;;9.30;99.90;;;;;;5047574;28;20033;-59
2023/11/20 05:11:56;;;;;;;14.52;7.75;;;9.30;99.90;;;;;;5042931;28;20051;-58
2023/11/20 05:14:22;;;;;;;10.15;6.45;;;9.30;99.90;;;;;;5026616;28;20041;-57
2023/11/20 05:16:48;;;;;;;11.23;7.40;;;9.30;99.90;;;;;;5044861;28;20028;-59
2023/11/20 05:19:13;;;;;;;11.30;7.53;;;9.30;99.90;;;;;;5045264;28;20033;-59
2023/11/20 05:21:43;;;;;;;12.43;8.15;;;9.30;99.90;;;;;;5046979;28;20029;-58
2023/11/20 05:24:09;;;;;;;11.23;8.07;;;9.40;99.90;;;;;;5048646;28;20071;-59
2023/11/20 05:26:34;;;;;;;13.05;8.18;;;9.30;99.90;;;;;;5046644;28;20441;-59
2023/11/20 05:29:00;;;;;;;11.82;7.55;;;9.30;99.90;;;;;;5047056;28;20631;-58
2023/11/20 05:31:26;;;;;;;15.32;7.50;;;9.30;99.90;;;;;;5042856;28;20095;-59
2023/11/20 05:33:51;;;;;;;12.07;7.80;;;9.30;99.90;;;;;;5044933;28;20036;-59
2023/11/20 05:36:17;;;;;;;15.05;9.02;;;9.30;99.90;;;;;;5043919;28;20022;-58
2023/11/20 05:38:42;;;;;;;14.18;8.65;;;9.40;99.90;;;;;;5028503;28;20395;-57
2023/11/20 05:41:09;;;;;;;14.57;8.02;;;9.40;99.90;;;;;;5042975;28;20054;-59
2023/11/20 05:43:36;;;;;;;12.63;7.65;;;9.30;99.90;;;;;;5021813;28;20652;-57
2023/11/20 05:46:02;;;;;;;12.15;7.47;;;9.30;99.90;;;;;;5040300;28;20028;-57
2023/11/20 05:48:28;;;;;;;10.82;7.20;;;9.30;99.90;;;;;;5044604;28;20024;-60
2023/11/20 05:50:54;;;;;;;14.18;8.43;;;9.30;99.90;;;;;;5046065;28;20082;-54
2023/11/20 05:53:19;;;;;;;18.98;9.73;;;9.30;99.90;;;;;;5043285;28;20029;-57
2023/11/20 05:55:46;;;;;;;16.15;10.05;;;9.30;99.90;;;;;;5047358;28;20041;-59
2023/11/20 05:58:12;;;;;;;15.55;9.88;;;9.30;99.90;;;;;;5047809;28;20096;-58
2023/11/20 06:00:37;;;;;;;16.02;8.30;;;9.40;99.90;;;;;;5042074;28;20028;-59
2023/11/20 06:03:05;;;;;;;16.98;9.38;;;9.30;99.90;;;;;;5044860;28;20519;-58
2023/11/20 06:05:30;;;;;;;18.58;9.25;;;9.30;99.90;;;;;;5046003;28;20025;-58
2023/11/20 06:07:56;;;;;;;15.68;8.35;;;9.30;99.90;;;;;;5046039;28;20045;-58
2023/11/20 06:10:21;;;;;;;12.77;7.85;;;9.30;99.90;;;;;;5043378;28;20440;-57
2023/11/20 06:12:47;;;;;;;15.93;9.13;;;9.30;99.90;;;;;;5041860;28;20694;-58
2023/11/20 06:15:12;;;;;;;14.70;9.15;;;9.30;99.90;;;;;;5045692;28;20044;-57
2023/11/20 06:17:38;;;;;;;14.90;10.02;;;9.40;99.90;;;;;;5043199;28;20044;-58
2023/11/20 06:20:05;;;;;;;22.05;11.55;;;9.30;99.90;;;;;;5027294;28;20079;-58
2023/11/20 06:22:31;;;;;;;16.15;10.10;;;9.40;99.90;;;;;;5046206;28;20104;-58
2023/11/20 06:24:57;;;;;;;17.58;9.07;;;9.40;99.90;;;;;;5042820;28;20123;-58
2023/11/20 06:27:22;;;;;;;15.77;9.77;;;9.40;99.90;;;;;;5045934;28;20091;-58
2023/11/20 06:29:48;;;;;;;23.55;11.65;;;9.40;99.90;;;;;;5026969;28;20059;-59
2023/11/20 06:32:14;;;;;;;17.30;10.25;;;9.40;99.90;;;;;;5043781;28;20572;-58
2023/11/20 06:34:40;;;;;;;16.42;10.15;;;9.40;99.90;;;;;;5043339;28;20120;-59
2023/11/20 06:37:05;;;;;;;17.65;10.45;;;9.40;99.90;;;;;;5023951;28;20071;-59
2023/11/20 06:39:31;;;;;;;15.13;9.40;;;9.40;99.90;;;;;;5045678;28;20039;-57
2023/11/20 06:41:56;;;;;;;20.10;9.93;;;9.40;99.90;;;;;;5040393;28;20028;-59
2023/11/20 06:44:22;;;;;;;18.35;10.82;;;9.40;99.90;;;;;;5042767;28;20029;-59
2023/11/20 06:46:47;;;;;;;20.27;10.63;;;9.40;99.90;;;;;;5042895;28;20040;-59
2023/11/20 06:49:14;;;;;;;18.00;9.32;;;9.40;99.90;;;;;;5028785;28;20029;-58
2023/11/20 06:51:42;;;;;;;30.15;14.57;;;9.40;99.90;;;;;;5043031;28;20421;-60
2023/11/20 06:54:08;;;;;;;17.83;11.60;;;9.40;99.90;;;;;;5041133;28;20518;-62
2023/11/20 06:56:35;;;;;;;18.95;10.73;;;9.40;99.90;;;;;;5041280;28;20032;-60
2023/11/20 06:59:01;;;;;;;22.55;11.43;;;9.40;99.90;;;;;;5040990;28;20025;-62
2023/11/20 07:01:26;;;;;;;22.30;11.40;;;9.40;99.90;;;;;;5041944;28;20033;-61
2023/11/20 07:03:53;;;;;;;23.42;12.82;;;9.40;99.90;;;;;;5021819;28;20029;-59
2023/11/20 07:06:19;;;;;;;21.70;12.73;;;9.40;99.90;;;;;;5023008;28;20025;-59
2023/11/20 07:08:44;;;;;;;24.42;12.35;;;9.40;99.90;;;;;;5043310;28;20496;-59
2023/11/20 07:11:10;;;;;;;19.90;10.93;;;9.40;99.90;;;;;;5040162;28;20044;-59
2023/11/20 07:13:36;;;;;;;20.67;12.95;;;9.40;99.90;;;;;;5032784;28;20040;-59
2023/11/20 07:16:01;;;;;;;23.48;11.90;;;9.40;99.90;;;;;;5041807;28;20104;-56
2023/11/20 07:18:27;;;;;;;23.40;13.15;;;9.40;99.90;;;;;;5038965;28;20027;-59
2023/11/20 07:20:54;;;;;;;18.08;11.10;;;9.40;99.90;;;;;;5037646;28;20038;-60
2023/11/20 07:23:20;;;;;;;19.90;11.85;;;9.40;99.90;;;;;;5038595;28;20173;-59
2023/11/20 07:25:45;;;;;;;19.00;11.32;;;9.40;99.90;;;;;;5041476;28;20058;-59
2023/11/20 07:28:11;;;;;;;27.08;13.50;;;9.40;99.90;;;;;;5024678;28;20029;-60
2023/11/20 07:30:37;;;;;;;26.98;15.23;;;9.40;99.90;;;;;;5043105;28;20043;-61
2023/11/20 07:33:03;;;;;;;27.73;14.13;;;9.40;99.90;;;;;;5041588;28;20025;-60
2023/11/20 07:35:28;;;;;;;31.23;13.75;;;9.40;99.90;;;;;;5043747;28;20212;-61
2023/11/20 07:37:54;;;;;;;29.40;14.90;;;9.50;99.90;;;;;;5045416;28;20033;-60
2023/11/20 07:40:21;;;;;;;28.15;14.18;;;9.50;99.90;;;;;;5038363;28;20528;-61
2023/11/20 07:42:47;;;;;;;27.98;13.43;;;9.50;99.90;;;;;;5038822;28;20031;-61
2023/11/20 07:45:13;;;;;;;23.80;12.95;;;9.50;99.90;;;;;;5039341;28;20029;-61
2023/11/20 07:47:39;;;;;;;32.10;16.90;;;9.50;99.90;;;;;;5039043;28;20140;-60
2023/11/20 07:50:06;;;;;;;27.77;14.73;;;9.50;99.90;;;;;;5036503;28;20024;-61
2023/11/20 07:52:32;;;;;;;27.52;14.98;;;9.50;99.90;;;;;;5022412;28;20733;-61
2023/11/20 07:54:58;;;;;;;24.38;14.38;;;9.50;99.90;;;;;;5039672;28;20100;-60
2023/11/20 07:57:25;;;;;;;21.05;11.85;;;9.50;99.90;;;;;;5041633;28;20576;-60
2023/11/20 07:59:51;;;;;;;29.02;12.55;;;9.50;99.90;;;;;;5026584;28;20481;-60
2023/11/20 08:02:17;;;;;;;26.00;13.48;;;9.60;99.90;;;;;;5025995;28;20040;-60
2023/11/20 08:04:43;;;;;;;24.33;12.85;;;9.60;99.90;;;;;;5037496;28;20040;-61
2023/11/20 08:07:09;;;;;;;24.10;12.63;;;9.60;99.90;;;;;;5040480;28;20037;-60
2023/11/20 08:09:35;;;;;;;26.05;13.25;;;9.60;99.90;;;;;;5044823;28;20033;-61
2023/11/20 08:12:01;;;;;;;22.73;13.20;;;9.60;99.90;;;;;;5041978;28;20021;-61
2023/11/20 08:14:27;;;;;;;23.35;11.80;;;9.60;99.90;;;;;;5030002;28;20021;-61
2023/11/20 08:16:54;;;;;;;26.77;13.98;;;9.60;99.90;;;;;;5027291;28;20083;-59
2023/11/20 08:19:20;;;;;;;24.08;12.45;;;9.70;99.90;;;;;;5038514;28;20104;-61
2023/11/20 08:21:46;;;;;;;22.60;12.57;;;9.70;99.90;;;;;;5036125;28;20537;-61
2023/11/20 08:24:12;;;;;;;26.88;12.10;;;9.70;99.90;;;;;;5043539;28;20040;-60
2023/11/20 08:26:38;;;;;;;22.88;11.77;;;9.70;99.90;;;;;;5020611;28;20033;-61
2023/11/20 08:29:04;;;;;;;24.85;11.90;;;9.70;99.90;;;;;;5046490;28;20021;-60
2023/11/20 08:31:31;;;;;;;22.42;12.43;;;9.80;99.90;;;;;;5027508;28;20033;-60
2023/11/20 08:33:56;;;;;;;22.90;12.55;;;9.80;99.90;;;;;;5043821;28;20045;-59
2023/11/20 08:36:22;;;;;;;24.00;12.60;;;9.80;99.90;;;;;;5039888;28;20068;-60
2023/11/20 08:38:47;;;;;;;23.75;12.48;;;9.80;99.90;;;;;;5045227;28;20022;-60
2023/11/20 08:41:13;;;;;;;24.77;11.88;;;9.80;99.90;;;;;;5044420;28;20758;-60
2023/11/20 08:43:39;;;;;;;22.67;12.52;;;9.90;99.90;;;;;;5045926;28;20032;-59
2023/11/20 08:46:05;;;;;;;25.25;13.43;;;9.90;99.90;;;;;;5042267;28;20120;-60
2023/11/20 08:48:31;;;;;;;23.02;13.05;;;9.90;99.90;;;;;;5031729;28;20163;-60
2023/11/20 08:50:57;;;;;;;25.52;14.02;;;9.90;99.90;;;;;;5042107;28;20508;-59
2023/11/20 08:53:22;;;;;;;22.75;11.38;;;9.90;99.90;;;;;;5043227;28;20034;-59
2023/11/20 08:55:48;;;;;;;22.05;12.35;;;10.00;99.90;;;;;;5042581;28;20048;-58
2023/11/20 08:58:14;;;;;;;21.83;10.95;;;10.00;99.90;;;;;;5047181;28;20504;-60
2023/11/20 09:00:39;;;;;;;24.48;13.35;;;10.00;99.90;;;;;;5044991;28;20036;-60
2023/11/20 09:03:05;;;;;;;23.80;11.73;;;10.00;99.90;;;;;;5045370;28;20021;-59
2023/11/20 09:05:31;;;;;;;28.25;14.52;;;10.00;99.90;;;;;;5044480;28;20404;-59
2023/11/20 09:07:57;;;;;;;25.85;12.85;;;10.10;99.90;;;;;;5042555;28;20107;-59
2023/11/20 09:10:23;;;;;;;24.00;13.07;;;10.10;99.90;;;;;;5037051;28;20599;-60
2023/11/20 09:12:50;;;;;;;27.50;14.65;;;10.10;99.90;;;;;;5046317;28;20029;-60
2023/11/20 09:15:16;;;;;;;24.52;12.70;;;10.10;99.90;;;;;;5042524;28;20075;-60
2023/11/20 09:17:42;;;;;;;18.45;11.50;;;10.10;99.90;;;;;;5046509;28;20017;-60
2023/11/20 09:20:20;;;;;;;23.48;12.40;;;10.10;99.90;;;;;;5039145;28;20022;-59
2023/11/20 09:22:49;;;;;;;25.25;11.60;;;10.20;99.90;;;;;;5037803;28;20112;-60
2023/11/20 09:25:15;;;;;;;19.30;11.23;;;10.20;99.90;;;;;;5038564;28;20029;-61
2023/11/20 09:27:41;;;;;;;18.08;10.43;;;10.20;99.90;;;;;;5024494;28;20033;-60
2023/11/20 09:30:08;;;;;;;22.75;11.70;;;10.20;99.90;;;;;;5041420;28;20031;-58
2023/11/20 09:32:33;;;;;;;25.23;13.20;;;10.20;99.90;;;;;;5040993;28;20103;-60
2023/11/20 09:34:59;;;;;;;23.95;11.50;;;10.20;99.90;;;;;;5040838;28;20108;-58
2023/11/20 09:37:25;;;;;;;18.55;10.18;;;10.30;99.90;;;;;;5041439;28;20036;-60
2023/11/20 09:39:51;;;;;;;19.95;10.70;;;10.20;99.90;;;;;;5044519;28;20028;-59
2023/11/20 09:42:22;;;;;;;20.15;11.27;;;10.20;99.90;;;;;;5043991;28;20052;-58
2023/11/20 09:44:49;;;;;;;17.70;10.77;;;10.30;99.90;;;;;;5042747;28;20029;-59
2023/11/20 09:47:15;;;;;;;19.58;10.20;;;10.30;99.90;;;;;;5040419;28;20044;-60
2023/11/20 09:49:43;;;;;;;21.58;10.40;;;10.30;99.90;;;;;;5042756;28;20045;-60
2023/11/20 09:52:09;;;;;;;19.10;9.93;;;10.30;99.90;;;;;;5045624;28;20048;-59
2023/11/20 09:54:37;;;;;;;17.20;9.75;;;10.40;99.90;;;;;;5038949;28;20033;-61
2023/11/20 09:57:09;;;;;;;21.00;9.85;;;10.40;99.90;;;;;;5041372;28;20020;-60
2023/11/20 09:59:35;;;;;;;18.45;9.48;;;10.40;99.90;;;;;;5045788;28;20418;-61
2023/11/20 10:02:02;;;;;;;17.13;10.77;;;10.40;99.90;;;;;;5043487;28;20033;-61
2023/11/20 10:04:31;;;;;;;17.55;9.27;;;10.40;99.90;;;;;;5045580;28;20098;-61
2023/11/20 10:07:00;;;;;;;18.73;9.70;;;10.40;99.90;;;;;;5044633;28;20540;-61
2023/11/20 10:09:27;;;;;;;18.27;10.13;;;10.40;99.90;;;;;;5026642;28;20032;-60
2023/11/20 10:11:53;;;;;;;20.35;9.45;;;10.50;99.90;;;;;;5044351;28;20024;-61
2023/11/20 10:14:19;;;;;;;16.45;9.80;;;10.50;99.90;;;;;;5045289;28;20067;-60
2023/11/20 10:16:53;;;;;;;17.63;9.20;;;10.50;99.90;;;;;;5047058;28;20017;-60
2023/11/20 10:19:19;;;;;;;18.17;9.57;;;10.60;99.90;;;;;;5036465;28;20025;-60
2023/11/20 10:21:46;;;;;;;19.05;10.38;;;10.60;99.90;;;;;;5033012;28;20524;-60
2023/11/20 10:24:15;;;;;;;20.67;10.63;;;10.60;99.90;;;;;;5038814;28;20060;-60
2023/11/20 10:26:41;;;;;;;17.80;9.38;;;10.60;99.90;;;;;;5020904;28;20040;-61
2023/11/20 10:29:09;;;;;;;18.42;9.27;;;10.60;99.90;;;;;;5037598;28;20033;-61
2023/11/20 10:31:45;;;;;;;15.38;9.05;;;10.60;99.90;;;;;;5040550;28;20082;-60
2023/11/20 10:34:11;;;;;;;17.55;9.00;;;10.60;99.90;;;;;;5045845;28;20021;-60
2023/11/20 10:36:38;;;;;;;18.05;9.02;;;10.70;99.90;;;;;;5021378;28;20132;-61
2023/11/20 10:39:07;;;;;;;22.40;10.93;;;10.70;99.90;;;;;;5045697;28;20024;-60
2023/11/20 10:41:33;;;;;;;21.60;10.63;;;10.70;99.90;;;;;;5038282;28;20128;-60
2023/11/20 10:43:59;;;;;;;21.63;9.93;;;10.70;99.90;;;;;;5044053;28;20071;-59
2023/11/20 10:46:28;;;;;;;15.52;8.63;;;10.70;99.90;;;;;;5040572;28;20346;-58
2023/11/20 10:48:55;;;;;;;18.35;9.93;;;10.70;99.90;;;;;;5044330;28;20071;-60
2023/11/20 10:51:22;;;;;;;16.10;9.45;;;10.70;99.90;;;;;;5040572;28;20025;-60
2023/11/20 10:54:02;;;;;;;16.08;9.52;;;10.70;99.90;;;;;;5046114;28;20020;-59
2023/11/20 10:56:32;;;;;;;17.52;9.77;;;10.70;99.90;;;;;;5023598;28;20024;-60
2023/11/20 10:59:01;;;;;;;19.85;9.75;;;10.70;99.90;;;;;;5045006;28;20234;-60
2023/11/20 11:01:30;;;;;;;18.48;10.45;;;10.80;99.90;;;;;;5043876;28;20024;-60
2023/11/20 11:04:00;;;;;;;20.30;11.75;;;10.80;99.90;;;;;;5043911;28;20029;-60
2023/11/20 11:06:26;;;;;;;18.95;11.55;;;10.80;99.90;;;;;;5044403;28;20412;-60
2023/11/20 11:08:56;;;;;;;22.58;11.35;;;10.80;99.90;;;;;;5042507;28;20039;-58
2023/11/20 11:11:22;;;;;;;18.45;11.88;;;10.80;99.90;;;;;;5043452;28;20115;-60
2023/11/20 11:13:51;;;;;;;17.20;9.52;;;10.90;99.90;;;;;;5042527;28;20124;-59
2023/11/20 11:16:30;;;;;;;16.85;9.20;;;10.90;99.90;;;;;;5023338;28;20554;-59
2023/11/20 11:19:13;;;;;;;15.25;8.75;;;10.90;99.90;;;;;;5032567;28;20025;-61
2023/11/20 11:22:00;;;;;;;15.88;9.02;;;10.90;99.90;;;;;;5037237;28;20027;-59
2023/11/20 11:24:31;;;;;;;16.00;9.18;;;11.00;99.90;;;;;;5041842;28;20552;-58
2023/11/20 11:27:14;;;;;;;13.82;8.10;;;11.00;99.90;;;;;;5044394;28;20170;-59
2023/11/20 11:29:45;;;;;;;13.05;8.43;;;11.00;99.90;;;;;;5039967;28;20047;-58
2023/11/20 11:32:22;;;;;;;17.38;8.77;;;11.00;99.90;;;;;;5033861;28;20400;-59
2023/11/20 11:34:54;;;;;;;12.07;7.57;;;11.00;99.90;;;;;;5038467;28;20040;-59
2023/11/20 11:37:23;;;;;;;11.77;7.97;;;11.00;99.90;;;;;;5037877;28;20033;-60
2023/11/20 11:40:09;;;;;;;13.02;8.80;;;11.00;99.90;;;;;;5041996;28;20107;-62
2023/11/20 11:42:55;;;;;;;10.40;7.45;;;11.00;99.90;;;;;;5026170;28;20134;-58
2023/11/20 11:45:27;;;;;;;11.00;7.00;;;11.10;99.90;;;;;;5042926;28;20030;-60
2023/11/20 11:47:52;;;;;;;12.43;6.70;;;11.10;99.90;;;;;;5043530;28;20158;-60
2023/11/20 11:50:18;;;;;;;13.18;6.68;;;11.10;99.90;;;;;;5025213;28;20116;-60
2023/11/20 11:52:47;;;;;;;12.23;7.07;;;11.10;99.90;;;;;;5045430;28;20041;-57
2023/11/20 11:55:13;;;;;;;11.77;6.63;;;11.10;99.90;;;;;;5040479;28;20158;-59
2023/11/20 11:57:40;;;;;;;9.98;6.90;;;11.10;99.90;;;;;;5046047;28;20116;-60
2023/11/20 12:00:21;;;;;;;11.90;7.22;;;11.10;99.90;;;;;;5045905;28;20032;-60
2023/11/20 12:02:50;;;;;;;16.08;7.70;;;11.10;99.90;;;;;;5042124;28;20577;-60
2023/11/20 12:05:17;;;;;;;14.65;7.70;;;11.10;99.90;;;;;;5048257;28;20057;-59
2023/11/20 12:07:46;;;;;;;12.50;7.55;;;11.20;99.90;;;;;;5046150;28;20021;-60
2023/11/20 12:10:12;;;;;;;15.52;8.20;;;11.20;99.90;;;;;;5028769;28;20017;-60
2023/11/20 12:12:55;;;;;;;13.23;8.15;;;11.20;99.90;;;;;;5039934;28;20037;-61
2023/11/20 12:15:29;;;;;;;9.75;6.63;;;11.20;99.90;;;;;;5048977;28;20020;-60
2023/11/20 12:17:58;;;;;;;12.52;7.05;;;11.20;99.90;;;;;;5046816;28;20033;-60
2023/11/20 12:20:25;;;;;;;12.77;7.78;;;11.20;99.90;;;;;;5040756;28;20036;-60
2023/11/20 12:22:54;;;;;;;13.93;7.47;;;11.20;99.90;;;;;;5047719;28;20021;-60
2023/11/20 12:25:23;;;;;;;14.65;7.88;;;11.20;99.90;;;;;;5045063;28;20013;-60
2023/11/20 12:27:49;;;;;;;11.55;7.28;;;11.20;99.90;;;;;;5040388;28;20151;-61
2023/11/20 12:30:15;;;;;;;12.82;7.90;;;11.20;99.90;;;;;;5048216;28;20058;-60
2023/11/20 12:32:41;;;;;;;10.25;6.63;;;11.20;99.90;;;;;;5031947;28;20048;-60
2023/11/20 12:35:09;;;;;;;12.05;7.45;;;11.20;99.90;;;;;;5029666;28;20112;-60
2023/11/20 12:37:36;;;;;;;11.57;6.43;;;11.20;99.90;;;;;;5044454;28;20300;-60
2023/11/20 12:40:02;;;;;;;8.50;5.82;;;11.20;99.90;;;;;;5034838;28;20017;-59
2023/11/20 12:42:29;;;;;;;11.60;6.35;;;11.20;99.90;;;;;;5044288;28;20025;-61
2023/11/20 12:44:54;;;;;;;10.82;5.85;;;11.20;99.90;;;;;;5045121;28;20025;-60